Time;durP1;ratioP1;P1;durP2;ratioP2;P2;SDS_P1;SDS_P2;PMS_P1;PMS_P2;Temp;Humidity;BMP_temperature;BMP_pressure;BME280_temperature;BME280_humidity;BME280_pressure;Samples;Min_cycle;Max_cycle;Signal;HPM_P1;HPM_P2
2022/05/05 00:00:06;;;;;;;14.25;7.45;;;;;;;9.78;74.33;101947.69;5095799;28;20024;-41
2022/05/05 00:02:33;;;;;;;16.42;8.15;;;;;;;9.71;74.48;101951.84;5095797;28;20402;-41
2022/05/05 00:04:58;;;;;;;17.73;7.75;;;;;;;9.73;74.11;101962.03;5096021;28;20077;-41
2022/05/05 00:07:23;;;;;;;16.33;7.57;;;;;;;9.74;74.89;101956.69;5095761;28;20415;-42
2022/05/05 00:09:49;;;;;;;16.50;7.57;;;;;;;9.63;75.28;101962.09;5095839;28;20027;-42
2022/05/05 00:14:58;;;;;;;18.60;7.47;;;;;;;9.62;75.02;101966.47;5096138;28;20084;-41
2022/05/05 00:17:25;;;;;;;14.60;7.07;;;;;;;9.58;75.45;101969.50;5095593;28;20028;-42
2022/05/05 00:19:50;;;;;;;18.25;7.38;;;;;;;9.58;74.31;101972.06;5094184;28;20024;-42
2022/05/05 00:22:15;;;;;;;14.32;7.53;;;;;;;9.52;75.17;101970.09;5095219;28;20032;-42
2022/05/05 00:24:40;;;;;;;13.63;7.78;;;;;;;9.52;74.71;101970.09;5096216;28;20069;-41
2022/05/05 00:27:07;;;;;;;13.00;7.55;;;;;;;9.45;74.89;101970.69;5095244;28;20451;-42
2022/05/05 00:29:32;;;;;;;14.95;7.60;;;;;;;9.37;75.03;101969.81;5095577;28;20051;-42
2022/05/05 00:31:57;;;;;;;16.15;8.18;;;;;;;9.29;75.89;101977.50;5095561;28;20057;-42
2022/05/05 00:34:23;;;;;;;17.08;7.97;;;;;;;9.32;75.63;101974.63;5095252;28;20028;-42
2022/05/05 00:36:48;;;;;;;14.57;7.85;;;;;;;9.22;75.71;101969.56;5095159;28;20122;-42
2022/05/05 00:39:14;;;;;;;15.98;8.45;;;;;;;9.14;76.15;101969.47;5095607;28;20530;-42
2022/05/05 00:41:43;;;;;;;19.67;8.73;;;;;;;9.13;75.98;101970.44;5095205;28;20031;-42
2022/05/05 00:44:09;;;;;;;15.48;8.45;;;;;;;9.15;75.87;101960.78;5094972;28;20028;-42
2022/05/05 00:46:35;;;;;;;16.55;7.60;;;;;;;9.15;75.88;101971.09;5094990;28;20028;-42
2022/05/05 00:49:01;;;;;;;20.45;8.02;;;;;;;9.06;75.49;101959.91;5094931;28;20074;-45
2022/05/05 00:51:27;;;;;;;17.10;7.78;;;;;;;8.94;76.21;101961.88;5094923;28;20046;-42
2022/05/05 00:53:54;;;;;;;17.98;7.65;;;;;;;8.92;76.37;101945.78;5094810;28;20016;-42
2022/05/05 00:56:20;;;;;;;15.43;7.95;;;;;;;9.12;75.50;101963.66;5095066;28;20022;-43
2022/05/05 00:58:47;;;;;;;14.10;7.65;;;;;;;9.13;75.62;101967.88;5094937;28;20062;-42
2022/05/05 01:01:17;;;;;;;15.05;7.60;;;;;;;9.09;75.29;101963.94;5094596;28;20075;-42
2022/05/05 01:03:43;;;;;;;15.90;7.55;;;;;;;9.03;75.46;101966.19;5093530;28;20032;-42
2022/05/05 01:06:09;;;;;;;15.93;7.63;;;;;;;9.07;75.51;101966.69;5094659;28;20093;-42
2022/05/05 01:08:35;;;;;;;12.93;7.38;;;;;;;9.06;75.81;101964.25;5094850;28;20020;-42
2022/05/05 01:11:00;;;;;;;17.17;7.80;;;;;;;8.97;75.98;101960.78;5094413;28;20490;-42
2022/05/05 01:13:27;;;;;;;17.25;7.55;;;;;;;8.99;75.35;101957.09;5095009;28;20039;-42
2022/05/05 01:15:54;;;;;;;17.67;7.95;;;;;;;8.95;76.19;101966.09;5094677;28;20481;-42
2022/05/05 01:18:19;;;;;;;18.27;8.20;;;;;;;8.89;76.15;101965.88;5094623;28;20051;-42
2022/05/05 01:20:46;;;;;;;18.70;7.78;;;;;;;8.92;76.41;101958.66;5094269;28;20064;-42
2022/05/05 01:23:13;;;;;;;13.68;7.32;;;;;;;8.86;75.72;101963.59;5094476;28;20039;-42
2022/05/05 01:28:23;;;;;;;12.68;7.50;;;;;;;8.64;76.12;101963.06;5094485;28;20039;-42
2022/05/05 01:30:48;;;;;;;16.67;8.00;;;;;;;8.48;76.53;101955.13;5094035;28;20024;-41
2022/05/05 01:33:16;;;;;;;17.17;8.18;;;;;;;8.55;76.05;101969.88;5093998;28;20032;-42
2022/05/05 01:35:42;;;;;;;18.85;7.57;;;;;;;8.67;76.68;101964.53;5094119;28;20024;-42
2022/05/05 01:38:09;;;;;;;15.10;7.65;;;;;;;8.58;76.56;101964.44;5094085;28;20115;-42
2022/05/05 01:40:36;;;;;;;16.58;7.88;;;;;;;8.40;77.64;101967.91;5094781;28;20027;-42
2022/05/05 01:43:05;;;;;;;13.57;7.20;;;;;;;8.48;77.10;101960.28;5093910;28;20376;-42
2022/05/05 01:45:31;;;;;;;15.45;7.93;;;;;;;8.41;77.71;101967.78;5093943;28;20034;-43
2022/05/05 01:47:56;;;;;;;19.52;7.80;;;;;;;8.37;77.01;101971.56;5094094;28;20431;-42
2022/05/05 01:50:22;;;;;;;14.25;8.73;;;;;;;8.32;76.90;101973.78;5093863;28;20043;-42
2022/05/05 01:52:48;;;;;;;16.55;7.72;;;;;;;8.28;76.80;101965.50;5093487;28;20023;-42
2022/05/05 01:55:13;;;;;;;16.52;8.23;;;;;;;8.22;77.08;101960.94;5093674;28;20020;-42
2022/05/05 01:57:38;;;;;;;14.02;7.65;;;;;;;8.26;77.68;101959.72;5093893;28;20074;-42
2022/05/05 02:00:04;;;;;;;15.95;8.02;;;;;;;8.22;77.57;101965.28;5093907;28;20102;-42
2022/05/05 02:02:30;;;;;;;15.85;7.65;;;;;;;8.13;78.13;101967.75;5092706;28;20032;-42
2022/05/05 02:04:55;;;;;;;20.85;7.90;;;;;;;8.12;78.24;101968.69;5094169;28;20028;-42
2022/05/05 02:07:20;;;;;;;15.20;7.78;;;;;;;8.20;78.03;101968.00;5093637;28;20525;-42
2022/05/05 02:09:46;;;;;;;14.00;7.28;;;;;;;8.28;76.79;101967.28;5094200;28;20035;-42
2022/05/05 02:12:11;;;;;;;13.73;7.70;;;;;;;8.18;77.60;101974.25;5093498;28;20023;-42
2022/05/05 02:14:36;;;;;;;20.58;7.85;;;;;;;8.19;77.77;101979.25;5093787;28;20105;-42
2022/05/05 02:17:02;;;;;;;19.95;8.10;;;;;;;8.12;77.15;101979.00;5093461;28;20466;-42
2022/05/05 02:19:27;;;;;;;11.98;7.05;;;;;;;8.01;78.99;101980.94;5093792;28;20028;-42
2022/05/05 02:21:52;;;;;;;14.82;7.78;;;;;;;8.02;78.33;101974.81;5093505;28;20043;-42
2022/05/05 02:24:17;;;;;;;16.83;8.18;;;;;;;8.12;78.07;101978.19;5093603;28;20044;-42
2022/05/05 02:26:43;;;;;;;17.98;7.95;;;;;;;8.13;78.41;101977.22;5092699;28;20163;-42
2022/05/05 02:29:08;;;;;;;14.82;8.13;;;;;;;8.04;78.84;101984.03;5093591;28;20028;-42
2022/05/05 02:31:34;;;;;;;15.23;7.57;;;;;;;8.02;78.70;101975.63;5093490;28;20035;-43
2022/05/05 02:33:59;;;;;;;17.42;8.38;;;;;;;8.06;77.81;101974.41;5093773;28;20027;-42
2022/05/05 02:39:08;;;;;;;21.75;8.40;;;;;;;8.10;78.25;101978.31;5093984;28;20144;-43
2022/05/05 02:41:33;;;;;;;15.90;7.68;;;;;;;8.16;77.71;101974.38;5093598;28;20044;-42
2022/05/05 02:43:59;;;;;;;14.95;7.50;;;;;;;8.26;77.58;101975.16;5093324;28;20020;-42
2022/05/05 02:46:24;;;;;;;12.98;7.75;;;;;;;8.38;76.58;101972.41;5093231;28;20023;-42
2022/05/05 02:48:49;;;;;;;13.63;7.25;;;;;;;8.20;77.18;101980.03;5093727;28;20070;-42
2022/05/05 02:51:15;;;;;;;17.35;7.50;;;;;;;8.22;77.75;101980.72;5093019;28;20051;-42
2022/05/05 02:56:23;;;;;;;13.07;7.55;;;;;;;8.19;77.79;101965.56;5093228;28;20130;-42
2022/05/05 02:58:49;;;;;;;11.57;6.90;;;;;;;8.14;77.79;101971.94;5091874;28;20020;-43
2022/05/05 03:01:14;;;;;;;16.08;7.72;;;;;;;8.15;77.73;101975.34;5092982;28;20058;-43
2022/05/05 03:03:39;;;;;;;14.65;7.68;;;;;;;8.00;78.08;101972.41;5093784;28;20026;-42
2022/05/05 03:06:05;;;;;;;14.18;7.50;;;;;;;7.99;78.35;101972.53;5097245;28;20455;-42
2022/05/05 03:08:30;;;;;;;16.17;8.15;;;;;;;7.96;78.21;101971.06;5096937;28;20050;-42
2022/05/05 03:10:55;;;;;;;16.25;7.63;;;;;;;7.97;78.09;101967.53;5096680;28;20036;-42
2022/05/05 03:13:21;;;;;;;15.32;7.47;;;;;;;7.93;76.61;101968.75;5097234;28;20024;-43
2022/05/05 03:15:46;;;;;;;15.73;7.50;;;;;;;7.92;76.76;101969.72;5097286;28;20107;-35
2022/05/05 03:18:11;;;;;;;11.70;6.82;;;;;;;8.04;76.46;101978.88;5096734;28;20390;-34
2022/05/05 03:20:37;;;;;;;14.30;7.13;;;;;;;8.01;76.49;101983.50;5096893;28;20028;-34
2022/05/05 03:23:02;;;;;;;15.90;7.97;;;;;;;7.97;76.40;101971.84;5096477;28;20044;-34
2022/05/05 03:25:28;;;;;;;17.50;7.53;;;;;;;7.87;77.61;101971.91;5096580;28;20532;-35
2022/05/05 03:27:53;;;;;;;18.13;8.02;;;;;;;8.12;77.12;101970.47;5096856;28;20036;-36
2022/05/05 03:30:18;;;;;;;18.40;7.43;;;;;;;8.26;76.52;101972.59;5096546;28;20046;-35
2022/05/05 03:32:44;;;;;;;18.30;8.15;;;;;;;8.54;74.99;101975.97;5096948;28;20024;-35
2022/05/05 03:35:10;;;;;;;17.45;7.65;;;;;;;8.62;75.14;101980.41;5096421;28;20482;-37
2022/05/05 03:37:35;;;;;;;17.33;8.05;;;;;;;8.70;74.40;101984.84;5096344;28;20026;-37
2022/05/05 03:40:00;;;;;;;13.68;7.55;;;;;;;8.74;74.71;101984.41;5096235;28;20391;-37
2022/05/05 03:42:26;;;;;;;16.27;7.78;;;;;;;8.70;74.84;101984.84;5096279;28;20020;-35
2022/05/05 03:44:51;;;;;;;14.43;7.55;;;;;;;8.73;75.44;101987.94;5096211;28;20031;-35
2022/05/05 03:47:16;;;;;;;13.98;7.88;;;;;;;8.69;76.02;101990.94;5096413;28;20020;-35
2022/05/05 03:49:42;;;;;;;16.75;8.13;;;;;;;8.70;76.74;101990.00;5096399;28;20421;-38
2022/05/05 03:52:07;;;;;;;16.65;7.43;;;;;;;8.77;75.96;101994.44;5096008;28;20110;-36
2022/05/05 03:54:33;;;;;;;16.98;7.25;;;;;;;8.78;76.13;101990.09;5096222;28;20451;-36
2022/05/05 03:56:58;;;;;;;16.00;8.32;;;;;;;8.84;75.87;101997.25;5095950;28;20379;-36
2022/05/05 03:59:23;;;;;;;17.00;7.97;;;;;;;8.81;76.18;102002.69;5096494;28;20019;-37
2022/05/05 04:01:49;;;;;;;14.70;7.90;;;;;;;8.67;75.78;102000.63;5096171;28;20133;-36
2022/05/05 04:04:15;;;;;;;16.80;8.55;;;;;;;8.71;76.21;101992.44;5096129;28;20019;-36
2022/05/05 04:06:41;;;;;;;21.15;7.97;;;;;;;8.82;76.13;101999.16;5096033;28;20073;-37
2022/05/05 04:09:06;;;;;;;16.10;8.23;;;;;;;8.86;75.63;102000.50;5095679;28;20024;-37
2022/05/05 04:11:32;;;;;;;15.10;7.85;;;;;;;8.92;75.58;102002.50;5095891;28;20387;-36
2022/05/05 04:13:58;;;;;;;16.20;8.02;;;;;;;8.99;75.51;102007.88;5094727;28;20358;-36
2022/05/05 04:16:23;;;;;;;16.55;7.75;;;;;;;8.90;75.82;102004.41;5095819;28;20024;-36
2022/05/05 04:18:49;;;;;;;16.75;7.95;;;;;;;8.91;75.14;102003.44;5095446;28;20522;-35
2022/05/05 04:21:14;;;;;;;17.52;8.30;;;;;;;8.94;75.26;102000.56;5095572;28;20040;-36
2022/05/05 04:23:39;;;;;;;14.52;8.15;;;;;;;8.97;75.52;102002.84;5095772;28;20462;-34
2022/05/05 04:26:05;;;;;;;19.05;8.70;;;;;;;9.12;75.47;102004.91;5094170;28;20028;-36
2022/05/05 04:28:31;;;;;;;15.25;7.80;;;;;;;9.21;74.41;102004.88;5095313;28;20063;-37
2022/05/05 04:30:57;;;;;;;17.23;8.38;;;;;;;8.93;75.08;102011.03;5095336;28;20035;-34
2022/05/05 04:33:22;;;;;;;15.27;7.65;;;;;;;8.92;75.85;102017.13;5095596;28;20027;-37
2022/05/05 04:35:49;;;;;;;21.52;8.60;;;;;;;8.97;75.74;102010.56;5095869;28;20028;-38
2022/05/05 04:38:14;;;;;;;17.67;8.63;;;;;;;9.16;75.15;102012.22;5095480;28;20496;-36
2022/05/05 04:40:40;;;;;;;15.07;8.10;;;;;;;9.01;75.32;102024.81;5095693;28;20043;-37
2022/05/05 04:43:05;;;;;;;17.48;8.35;;;;;;;9.15;74.14;102022.66;5095345;28;20008;-35
2022/05/05 04:45:31;;;;;;;15.48;7.85;;;;;;;9.14;74.80;102028.78;5095075;28;20043;-36
2022/05/05 04:47:56;;;;;;;17.10;8.48;;;;;;;9.13;75.49;102022.84;5095331;28;20024;-37
2022/05/05 04:50:22;;;;;;;17.83;8.20;;;;;;;9.26;74.53;102025.88;5095214;28;20020;-36
2022/05/05 04:52:47;;;;;;;20.85;8.35;;;;;;;9.19;74.18;102029.97;5095369;28;20032;-36
2022/05/05 04:55:12;;;;;;;19.60;8.23;;;;;;;9.09;74.55;102033.56;5093894;28;20016;-36
2022/05/05 04:57:38;;;;;;;21.13;8.20;;;;;;;9.14;74.07;102033.97;5094804;28;20445;-36
2022/05/05 05:00:06;;;;;;;18.35;8.50;;;;;;;8.92;74.92;102028.28;5094996;28;20055;-34
2022/05/05 05:02:31;;;;;;;17.33;7.43;;;;;;;9.04;74.48;102034.84;5094661;28;20024;-35
2022/05/05 05:04:56;;;;;;;20.02;8.50;;;;;;;8.90;74.79;102034.53;5094724;28;20072;-36
2022/05/05 05:07:21;;;;;;;17.95;7.95;;;;;;;9.07;74.42;102033.75;5095398;28;20439;-37
2022/05/05 05:09:48;;;;;;;18.50;8.00;;;;;;;9.16;74.41;102034.63;5094582;28;20035;-37
2022/05/05 05:12:14;;;;;;;22.55;8.48;;;;;;;9.11;74.61;102040.22;5094696;28;20024;-37
2022/05/05 05:14:39;;;;;;;19.67;8.20;;;;;;;9.20;75.21;102038.53;5094556;28;20076;-36
2022/05/05 05:17:05;;;;;;;16.73;8.57;;;;;;;9.20;75.34;102043.69;5094480;28;20024;-37
2022/05/05 05:19:30;;;;;;;17.80;7.85;;;;;;;9.28;75.09;102051.50;5094519;28;20031;-37
2022/05/05 05:21:55;;;;;;;18.10;8.05;;;;;;;9.09;74.70;102012.94;5094514;28;20126;-36
2022/05/05 05:24:20;;;;;;;19.08;8.13;;;;;;;9.37;75.15;102049.81;5094818;28;20027;-37
2022/05/05 05:26:46;;;;;;;20.33;8.23;;;;;;;9.48;75.33;102050.38;5093632;28;20584;-37
2022/05/05 05:29:11;;;;;;;22.10;8.30;;;;;;;9.44;74.91;102061.19;5094845;28;20035;-37
2022/05/05 05:31:36;;;;;;;41.10;8.88;;;;;;;9.67;73.47;102061.53;5094186;28;20112;-36
2022/05/05 05:34:02;;;;;;;32.47;8.38;;;;;;;9.85;73.62;102066.66;5094104;28;20395;-36
2022/05/05 05:36:27;;;;;;;24.20;7.97;;;;;;;9.99;73.57;102070.47;5094573;28;20059;-37
2022/05/05 05:38:52;;;;;;;18.60;7.97;;;;;;;10.05;72.63;102070.66;5094320;28;20069;-34
2022/05/05 05:41:18;;;;;;;17.88;7.85;;;;;;;10.12;71.84;102066.50;5094358;28;20091;-35
2022/05/05 05:43:43;;;;;;;21.42;7.88;;;;;;;10.14;71.56;102074.09;5094566;28;20177;-36
2022/05/05 05:46:09;;;;;;;16.92;8.52;;;;;;;9.85;73.33;102071.81;5093930;28;20055;-35
2022/05/05 05:48:34;;;;;;;14.70;7.43;;;;;;;10.08;72.97;102070.34;5094217;28;20093;-35
2022/05/05 05:51:00;;;;;;;16.92;8.18;;;;;;;10.13;72.58;102075.88;5094121;28;20024;-37
2022/05/05 05:53:25;;;;;;;15.52;7.50;;;;;;;10.05;72.12;102078.41;5093907;28;20550;-36
2022/05/05 05:55:50;;;;;;;21.15;8.35;;;;;;;10.12;72.73;102070.84;5094045;28;20096;-36
2022/05/05 05:58:16;;;;;;;16.20;7.53;;;;;;;10.42;72.16;102085.13;5093646;28;20024;-39
2022/05/05 06:00:41;;;;;;;19.15;7.80;;;;;;;10.28;71.92;102071.00;5094246;28;20115;-37
2022/05/05 06:05:50;;;;;;;16.33;7.65;;;;;;;10.21;72.99;102077.69;5092697;28;20077;-37
2022/05/05 06:08:16;;;;;;;15.63;7.53;;;;;;;10.39;72.42;102085.44;5092722;28;20032;-39
2022/05/05 06:10:41;;;;;;;14.20;8.20;;;;;;;10.49;72.34;102088.69;5091787;28;20027;-37
2022/05/05 06:13:07;;;;;;;20.67;8.48;;;;;;;10.58;71.74;102087.75;5092025;28;20467;-36
2022/05/05 06:15:32;;;;;;;15.88;8.20;;;;;;;10.67;71.20;102096.38;5092567;28;20032;-37
2022/05/05 06:17:57;;;;;;;17.95;8.15;;;;;;;10.74;71.15;102094.78;5092142;28;20021;-36
2022/05/05 06:20:23;;;;;;;15.75;7.97;;;;;;;10.89;70.75;102101.97;5092112;28;20077;-35
2022/05/05 06:22:50;;;;;;;18.65;8.02;;;;;;;10.98;69.92;102106.19;5093178;28;20040;-36
2022/05/05 06:25:15;;;;;;;16.83;7.68;;;;;;;11.16;70.11;102106.88;5093616;28;20024;-37
2022/05/05 06:27:41;;;;;;;17.17;8.07;;;;;;;11.20;69.50;102107.38;5093483;28;20043;-36
2022/05/05 06:30:10;;;;;;;19.70;8.82;;;;;;;11.39;68.76;102103.69;5093150;28;20024;-35
2022/05/05 06:32:36;;;;;;;16.50;7.75;;;;;;;11.47;68.85;102103.69;5092194;28;20082;-35
2022/05/05 06:35:01;;;;;;;14.80;7.50;;;;;;;10.99;68.58;102087.09;5093759;28;20433;-37
2022/05/05 06:37:26;;;;;;;20.55;8.30;;;;;;;11.59;68.63;102102.41;5093964;28;20020;-37
2022/05/05 06:39:52;;;;;;;21.05;7.30;;;;;;;11.62;67.35;102101.28;5097343;28;20028;-35
2022/05/05 06:42:17;;;;;;;15.00;7.60;;;;;;;11.42;68.10;102108.53;5097542;28;20035;-34
2022/05/05 06:44:42;;;;;;;17.10;7.65;;;;;;;11.55;66.98;102114.06;5097270;28;20485;-52
2022/05/05 06:47:08;;;;;;;21.42;7.45;;;;;;;11.43;67.37;102108.41;5097874;28;20028;-49
2022/05/05 06:49:34;;;;;;;17.80;7.95;;;;;;;11.41;67.40;102118.09;5097292;28;20149;-47
2022/05/05 06:52:02;;;;;;;20.02;7.35;;;;;;;11.81;66.64;102123.47;5095899;28;20058;-46
2022/05/05 06:54:27;;;;;;;19.33;7.65;;;;;;;12.16;65.72;102120.53;5097441;28;20028;-46
2022/05/05 06:56:54;;;;;;;22.10;7.70;;;;;;;12.05;64.71;102117.50;5097175;28;20531;-48
2022/05/05 06:59:19;;;;;;;20.52;7.57;;;;;;;12.10;64.74;102115.22;5097858;28;20122;-50
2022/05/05 07:01:54;;;;;;;27.25;8.13;;;;;;;11.99;63.69;102107.78;5096743;28;20067;-45
2022/05/05 07:07:04;;;;;;;20.58;7.10;;;;;;;12.45;62.38;102111.41;5097260;28;20042;-48
2022/05/05 07:12:13;;;;;;;19.75;7.45;;;;;;;12.67;61.20;102124.66;5096613;28;20035;-47
2022/05/05 07:14:38;;;;;;;23.17;7.28;;;;;;;12.63;61.19;102126.78;5096581;28;20079;-46
2022/05/05 07:17:04;;;;;;;20.05;7.30;;;;;;;12.69;60.88;102130.44;5096855;28;20028;-46
2022/05/05 07:19:29;;;;;;;21.38;7.30;;;;;;;12.87;61.12;102129.25;5096769;28;20127;-46
2022/05/05 07:21:55;;;;;;;20.30;7.15;;;;;;;13.07;60.71;102127.06;5096443;28;20086;-45
2022/05/05 07:24:20;;;;;;;22.65;7.25;;;;;;;12.91;60.26;102128.91;5095608;28;20103;-46
2022/05/05 07:26:45;;;;;;;20.77;7.57;;;;;;;12.69;60.08;102135.63;5096746;28;20047;-45
2022/05/05 07:29:11;;;;;;;14.13;7.47;;;;;;;12.98;60.52;102142.84;5096599;28;20024;-46
2022/05/05 07:31:36;;;;;;;18.10;7.82;;;;;;;13.29;59.85;102137.66;5096988;28;20057;-46
2022/05/05 07:34:01;;;;;;;20.48;7.90;;;;;;;13.58;59.04;102139.59;5096763;28;20032;-47
2022/05/05 07:36:26;;;;;;;17.63;7.68;;;;;;;13.74;58.26;102134.25;5095182;28;20107;-45
2022/05/05 07:38:52;;;;;;;17.80;7.88;;;;;;;13.66;58.06;102136.91;5095142;28;20085;-46
2022/05/05 07:41:17;;;;;;;20.95;8.13;;;;;;;13.62;57.38;102143.47;5096467;28;20140;-46
2022/05/05 07:43:42;;;;;;;21.48;9.07;;;;;;;13.93;57.25;102143.38;5096568;28;20024;-47
2022/05/05 07:46:08;;;;;;;23.02;8.55;;;;;;;13.79;57.90;102145.94;5096516;28;20540;-45
2022/05/05 07:48:33;;;;;;;20.60;8.75;;;;;;;14.10;56.69;102151.03;5095020;28;20261;-46
2022/05/05 07:50:58;;;;;;;20.42;8.55;;;;;;;14.35;56.70;102146.38;5095793;28;20019;-45
2022/05/05 07:53:24;;;;;;;19.13;8.27;;;;;;;14.61;55.51;102151.97;5095052;28;20036;-46
2022/05/05 07:55:49;;;;;;;20.23;8.65;;;;;;;14.67;55.19;102150.44;5096258;28;20024;-46
2022/05/05 07:58:15;;;;;;;19.83;8.27;;;;;;;14.71;54.76;102154.31;5095981;28;20490;-46
2022/05/05 08:00:40;;;;;;;17.90;8.60;;;;;;;15.06;55.13;102157.16;5096368;28;20028;-45
2022/05/05 08:03:05;;;;;;;20.52;9.00;;;;;;;15.25;54.66;102159.16;5096269;28;20050;-46
2022/05/05 08:05:30;;;;;;;19.60;8.68;;;;;;;15.34;54.55;102159.84;5095797;28;20456;-47
2022/05/05 08:07:56;;;;;;;18.35;8.60;;;;;;;15.59;53.99;102168.09;5096135;28;20027;-46
2022/05/05 08:10:22;;;;;;;23.75;9.60;;;;;;;15.81;53.56;102150.69;5095827;28;20072;-46
2022/05/05 08:12:47;;;;;;;21.27;10.48;;;;;;;15.29;54.51;102163.00;5096007;28;20374;-46
2022/05/05 08:15:14;;;;;;;21.48;10.68;;;;;;;15.94;52.96;102155.19;5096275;28;20032;-46
2022/05/05 08:17:40;;;;;;;22.42;11.02;;;;;;;16.19;52.76;102164.22;5095893;28;20024;-46
2022/05/05 08:20:07;;;;;;;23.17;11.10;;;;;;;16.10;53.27;102160.13;5095892;28;20047;-47
2022/05/05 08:22:32;;;;;;;24.00;12.88;;;;;;;16.14;54.79;102161.38;5095664;28;20059;-45
2022/05/05 08:30:25;;;;;;;28.05;14.43;;;;;;;16.72;53.27;102163.72;5094928;28;20039;-46
2022/05/05 08:32:51;;;;;;;30.50;14.57;;;;;;;16.98;53.66;102167.47;5095570;28;20024;-46
2022/05/05 08:35:16;;;;;;;26.58;14.30;;;;;;;17.34;52.31;102167.97;5095331;28;20020;-46
2022/05/05 08:37:41;;;;;;;29.63;15.52;;;;;;;17.23;53.31;102168.53;5095241;28;20024;-46
2022/05/05 08:40:10;;;;;;;31.23;16.48;;;;;;;16.63;54.20;102170.91;5095437;28;20024;-46
2022/05/05 08:42:35;;;;;;;30.95;17.13;;;;;;;16.84;54.19;102169.22;5095300;28;20071;-47
2022/05/05 08:45:00;;;;;;;33.35;17.67;;;;;;;17.39;53.94;102174.41;5095399;28;20419;-48
2022/05/05 08:47:27;;;;;;;29.35;16.80;;;;;;;16.95;53.72;102176.50;5095820;28;20497;-46
2022/05/05 08:49:58;;;;;;;29.75;17.90;;;;;;;16.67;54.62;102176.53;5094797;28;20058;-47
2022/05/05 08:52:25;;;;;;;33.42;17.30;;;;;;;16.56;56.68;102174.47;5093440;28;20063;-47
2022/05/05 08:54:50;;;;;;;36.05;17.58;;;;;;;17.13;56.26;102187.19;5095295;28;20362;-46
2022/05/05 08:57:16;;;;;;;32.65;17.42;;;;;;;17.38;55.12;102186.69;5095355;28;20028;-45
2022/05/05 08:59:41;;;;;;;32.17;17.55;;;;;;;17.48;53.90;102181.06;5093621;28;20054;-47
2022/05/05 09:02:07;;;;;;;33.83;17.73;;;;;;;17.31;54.54;102191.88;5093564;28;20024;-47
2022/05/05 09:04:33;;;;;;;28.52;16.98;;;;;;;16.81;56.40;102188.69;5094448;28;20031;-46
2022/05/05 09:06:58;;;;;;;30.50;16.55;;;;;;;17.04;55.96;102191.00;5094552;28;20054;-47
2022/05/05 09:09:35;;;;;;;27.98;16.33;;;;;;;16.85;57.11;102196.94;5094609;28;20063;-48
2022/05/05 09:12:12;;;;;;;24.25;14.65;;;;;;;17.28;56.11;102189.66;5094466;28;20019;-46
2022/05/05 09:14:46;;;;;;;24.20;15.32;;;;;;;17.55;55.85;102195.75;5094664;28;20153;-46
2022/05/05 09:17:17;;;;;;;27.30;16.48;;;;;;;17.75;55.13;102190.56;5093639;28;20031;-46
2022/05/05 09:19:48;;;;;;;34.05;18.23;;;;;;;17.86;56.21;102198.81;5094672;28;20057;-46
2022/05/05 09:22:16;;;;;;;35.30;19.30;;;;;;;17.99;55.04;102199.63;5094239;28;20039;-46
2022/05/05 09:24:49;;;;;;;41.78;20.48;;;;;;;17.71;55.91;102196.38;5094551;28;20066;-46
2022/05/05 09:27:15;;;;;;;;;;;;;;;17.99;55.23;102204.88;5094281;28;20336;-45
2022/05/05 09:29:40;;;;;;;36.50;21.30;;;;;;;18.04;54.91;102201.66;5094047;28;20013;-46
2022/05/05 09:32:12;;;;;;;37.00;19.80;;;;;;;17.74;55.68;102203.81;5092917;28;20467;-49
2022/05/05 09:34:39;;;;;;;38.75;19.77;;;;;;;18.22;54.13;102201.03;5093971;28;20119;-46
2022/05/05 09:37:20;;;;;;;36.67;21.13;;;;;;;17.82;54.81;102211.50;5093976;28;20434;-46
2022/05/05 09:39:45;;;;;;;36.72;19.27;;;;;;;17.54;55.67;102209.81;5093982;28;20059;-47
2022/05/05 09:42:11;;;;;;;37.33;20.60;;;;;;;17.65;56.01;102207.63;5092916;28;20364;-46
2022/05/05 09:44:48;;;;;;;36.15;19.33;;;;;;;17.92;54.28;102206.66;5094024;28;20016;-47
2022/05/05 09:47:29;;;;;;;40.38;22.48;;;;;;;17.54;56.27;102212.44;5093838;28;20023;-47
2022/05/05 09:49:57;;;;;;;35.75;21.42;;;;;;;18.36;54.26;102217.53;5094199;28;20051;-46
2022/05/05 09:58:34;;;;;;;34.95;20.40;;;;;;;18.29;53.23;102221.94;5094002;28;20170;-46
2022/05/05 10:01:06;;;;;;;35.55;18.88;;;;;;;18.62;53.25;102219.28;5093555;28;20031;-47
2022/05/05 10:06:27;;;;;;;34.05;19.48;;;;;;;18.73;51.83;102218.66;5093884;28;20145;-47
2022/05/05 10:08:55;;;;;;;38.40;19.73;;;;;;;19.08;51.79;102223.59;5092181;28;20031;-45
2022/05/05 10:11:22;;;;;;;41.20;22.08;;;;;;;18.53;52.46;102229.19;5093448;28;20024;-46
2022/05/05 10:13:48;;;;;;;36.60;21.38;;;;;;;18.41;52.47;102215.91;5093447;28;20060;-47
2022/05/05 10:16:17;;;;;;;34.13;19.15;;;;;;;18.56;52.97;102223.53;5093702;28;20020;-46
2022/05/05 10:18:42;;;;;;;34.45;18.65;;;;;;;18.72;51.89;102217.03;5093721;28;20024;-46
2022/05/05 10:21:27;;;;;;;41.20;22.80;;;;;;;18.24;53.83;102227.78;5093482;28;20424;-46
2022/05/05 10:24:24;;;;;;;44.75;23.10;;;;;;;18.44;53.04;102223.34;5093659;28;20052;-45
2022/05/05 10:26:52;;;;;;;42.83;22.13;;;;;;;18.61;53.12;102225.50;5093614;28;20036;-46
2022/05/05 10:29:40;;;;;;;43.33;22.98;;;;;;;18.69;53.07;102230.53;5092123;28;20023;-47
2022/05/05 10:32:24;;;;;;;47.50;25.48;;;;;;;18.37;54.90;102233.00;5093429;28;20032;-45
2022/05/05 10:35:11;;;;;;;45.45;23.73;;;;;;;19.00;53.74;102226.44;5093287;28;20031;-46
2022/05/05 10:37:38;;;;;;;46.50;24.40;;;;;;;18.83;53.51;102236.56;5093176;28;20032;-46
2022/05/05 10:40:07;;;;;;;46.55;24.35;;;;;;;18.30;54.71;102231.41;5092964;28;20024;-46
2022/05/05 10:42:41;;;;;;;50.78;25.20;;;;;;;18.15;55.81;102235.03;5093838;28;20178;-51
2022/05/05 10:45:12;;;;;;;44.17;24.42;;;;;;;18.51;54.57;102233.00;5093273;28;20088;-48
2022/05/05 10:47:55;;;;;;;42.63;23.90;;;;;;;18.13;54.96;102238.88;5093115;28;20028;-46
2022/05/05 10:50:27;;;;;;;41.78;23.85;;;;;;;18.12;55.13;102232.81;5093488;28;20035;-46
2022/05/05 10:52:53;;;;;;;43.85;23.52;;;;;;;18.62;54.41;102242.84;5092951;28;20071;-46
2022/05/05 10:55:26;;;;;;;46.28;24.48;;;;;;;18.10;54.57;102241.91;5093031;28;20024;-47
2022/05/05 10:57:55;;;;;;;43.58;24.27;;;;;;;18.27;55.12;102237.88;5091849;28;20531;-46
2022/05/05 11:00:22;;;;;;;40.33;23.05;;;;;;;18.56;54.65;102243.63;5093902;28;20048;-46
2022/05/05 11:03:02;;;;;;;46.88;24.23;;;;;;;17.87;55.59;102232.63;5093270;28;20024;-46
2022/05/05 11:05:38;;;;;;;44.70;23.02;;;;;;;18.47;54.77;102240.44;5093284;28;20111;-47
2022/05/05 11:08:07;;;;;;;41.33;23.27;;;;;;;18.67;53.45;102243.00;5094051;28;20024;-47
2022/05/05 11:10:43;;;;;;;42.20;22.48;;;;;;;19.24;53.05;102243.25;5093150;28;20103;-46
2022/05/05 11:13:35;;;;;;;40.72;22.63;;;;;;;19.35;52.42;102242.59;5091703;28;20059;-47
2022/05/05 11:22:14;;;;;;;47.90;24.38;;;;;;;19.44;51.93;102243.16;5092285;28;20066;-48
2022/05/05 11:24:47;;;;;;;45.17;24.63;;;;;;;19.78;50.53;102248.00;5093194;28;20086;-46
2022/05/05 11:27:17;;;;;;;42.00;25.00;;;;;;;19.88;50.91;102249.34;5096214;28;20028;-47
2022/05/05 11:29:50;;;;;;;38.55;22.67;;;;;;;20.06;49.57;102252.84;5096855;28;20102;-47
2022/05/05 11:32:17;;;;;;;41.10;23.85;;;;;;;20.62;49.38;102248.50;5096983;28;20060;-48
2022/05/05 11:34:45;;;;;;;39.05;23.23;;;;;;;20.28;48.87;102242.78;5096400;28;20169;-46
2022/05/05 11:37:11;;;;;;;41.45;24.40;;;;;;;20.53;48.21;102241.94;5096739;28;20034;-46
2022/05/05 11:39:37;;;;;;;43.28;24.25;;;;;;;21.07;47.51;102242.16;5096352;28;20024;-47
2022/05/05 11:42:07;;;;;;;40.10;23.88;;;;;;;21.37;45.86;102242.19;5096470;28;20023;-45
2022/05/05 11:44:37;;;;;;;37.92;22.02;;;;;;;21.35;45.90;102242.41;5096836;28;20366;-46
2022/05/05 11:47:13;;;;;;;37.13;22.20;;;;;;;21.13;45.83;102249.16;5096295;28;20020;-46
2022/05/05 11:49:39;;;;;;;43.35;23.52;;;;;;;20.97;45.65;102242.66;5096503;28;20020;-46
2022/05/05 11:52:05;;;;;;;37.95;23.65;;;;;;;20.93;46.74;102238.88;5077930;28;20024;-46
2022/05/05 11:54:32;;;;;;;38.15;23.27;;;;;;;20.52;47.09;102242.94;5096158;28;20585;-46
2022/05/05 11:56:59;;;;;;;33.47;21.13;;;;;;;21.04;47.20;102237.34;5096347;28;20024;-46